createdAt,value
2022-11-18T00:00:05.037Z,100201.47
2022-11-18T00:02:32.944Z,100201.41
2022-11-18T00:05:00.906Z,100200.13
2022-11-18T00:07:28.969Z,100213.63
2022-11-18T00:09:58.349Z,100205.06
2022-11-18T00:12:43.731Z,100215.03
2022-11-18T00:15:11.677Z,100215.03
2022-11-18T00:17:39.544Z,100212.25
2022-11-18T00:20:08.585Z,100221.44
2022-11-18T00:22:36.410Z,100215.63
2022-11-18T00:25:06.076Z,100225.09
2022-11-18T00:27:34.355Z,100218.41
2022-11-18T00:30:02.160Z,100221.34
2022-11-18T00:32:29.994Z,100215.22
2022-11-18T00:34:58.042Z,100217.19
2022-11-18T00:37:25.891Z,100223.28
2022-11-18T00:39:53.715Z,100226.69
2022-11-18T00:42:40.465Z,100226.44
2022-11-18T00:45:08.861Z,100225.34
2022-11-18T00:47:36.723Z,100225.69
2022-11-18T00:50:05.038Z,100235.88
2022-11-18T00:52:32.903Z,100226.38
2022-11-18T00:55:01.025Z,100242.03
2022-11-18T00:57:30.335Z,100235.44
2022-11-18T00:59:58.195Z,100240.84
2022-11-18T01:02:26.266Z,100239.09
2022-11-18T01:04:54.303Z,100241.09
2022-11-18T01:07:22.304Z,100243.06
2022-11-18T01:09:50.451Z,100247.53
2022-11-18T01:12:36.061Z,100250.41
2022-11-18T01:15:05.753Z,100255.00
2022-11-18T01:17:33.719Z,100255.78
2022-11-18T01:20:02.273Z,100251.69
2022-11-18T01:22:30.140Z,100258.56
2022-11-18T01:24:57.992Z,100252.56
2022-11-18T01:27:25.995Z,100261.66
2022-11-18T01:29:53.843Z,100260.09
2022-11-18T01:32:25.075Z,100265.53
2022-11-18T01:34:53.667Z,100261.38
2022-11-18T01:37:21.561Z,100270.00
2022-11-18T01:39:49.597Z,100270.25
2022-11-18T01:42:18.767Z,100264.00
2022-11-18T01:45:09.509Z,100270.16
2022-11-18T01:47:43.479Z,100265.78
2022-11-18T01:50:12.280Z,100281.41
2022-11-18T01:52:41.671Z,100275.22
2022-11-18T01:55:14.243Z,100278.06
2022-11-18T01:57:43.224Z,100279.09
2022-11-18T02:00:12.894Z,100286.13
2022-11-18T02:02:43.117Z,100289.31
2022-11-18T02:05:12.260Z,100284.91
2022-11-18T02:07:43.256Z,100292.81
2022-11-18T02:10:19.737Z,100294.75
2022-11-18T02:12:48.119Z,100289.31
2022-11-18T02:15:17.590Z,100300.03
2022-11-18T02:17:56.726Z,100293.94
2022-11-18T02:20:32.963Z,100292.41
2022-11-18T02:23:49.570Z,100299.41
2022-11-18T02:26:49.599Z,100296.03
2022-11-18T02:29:25.379Z,100302.91
2022-11-18T02:31:58.932Z,100301.38
2022-11-18T02:34:41.936Z,100295.13
2022-11-18T02:37:17.711Z,100299.28
2022-11-18T02:39:53.408Z,100306.03
2022-11-18T02:42:24.160Z,100303.75
2022-11-18T02:44:59.985Z,100300.28
2022-11-18T02:47:30.057Z,100300.50
2022-11-18T02:50:03.034Z,100307.84
2022-11-18T02:52:33.201Z,100303.94
2022-11-18T02:55:02.572Z,100312.69
2022-11-18T02:57:32.489Z,100314.78
2022-11-18T03:00:01.716Z,100318.94
2022-11-18T03:02:30.111Z,100318.75
2022-11-18T03:04:59.860Z,100318.75
2022-11-18T03:07:32.254Z,100318.59
2022-11-18T03:10:02.668Z,100320.84
2022-11-18T03:12:37.929Z,100322.19
2022-11-18T03:15:17.936Z,100315.91
2022-11-18T03:17:55.931Z,100327.28
2022-11-18T03:20:27.306Z,100327.81
2022-11-18T03:22:58.804Z,100326.44
2022-11-18T03:25:35.673Z,100333.81
2022-11-18T03:28:10.123Z,100332.72
2022-11-18T03:30:47.113Z,100335.25
2022-11-18T03:33:20.370Z,100342.88
2022-11-18T03:35:53.559Z,100340.69
2022-11-18T03:38:27.571Z,100343.69
2022-11-18T03:41:00.546Z,100346.19
2022-11-18T03:43:33.345Z,100346.75
2022-11-18T03:46:09.986Z,100345.84
2022-11-18T03:48:43.162Z,100346.69
2022-11-18T03:51:14.707Z,100345.97
2022-11-18T03:53:47.416Z,100347.91
2022-11-18T03:56:19.368Z,100352.16
2022-11-18T03:58:54.915Z,100357.00
2022-11-18T04:01:30.655Z,100360.44
2022-11-18T04:03:58.712Z,100358.56
2022-11-18T04:06:32.874Z,100362.72
2022-11-18T04:09:04.670Z,100372.66
2022-11-18T04:11:56.044Z,100376.09
2022-11-18T04:14:23.988Z,100369.38
2022-11-18T04:16:54.210Z,100378.88
2022-11-18T04:19:22.886Z,100387.31
2022-11-18T04:21:51.652Z,100383.59
2022-11-18T04:24:19.458Z,100395.88
2022-11-18T04:26:47.416Z,100391.50
2022-11-18T04:29:15.717Z,100392.22
2022-11-18T04:31:43.858Z,100392.31
2022-11-18T04:34:13.174Z,100394.94
2022-11-18T04:36:41.041Z,100392.31
2022-11-18T04:39:09.074Z,100393.19
2022-11-18T04:41:54.824Z,100397.09
2022-11-18T04:44:22.815Z,100409.16
2022-11-18T04:46:50.697Z,100398.66
2022-11-18T04:49:20.178Z,100406.09
2022-11-18T04:51:48.526Z,100409.06
2022-11-18T04:54:17.216Z,100414.63
2022-11-18T04:56:49.150Z,100411.94
2022-11-18T04:59:19.341Z,100415.72
2022-11-18T05:01:47.620Z,100424.38
2022-11-18T05:04:17.565Z,100418.56
2022-11-18T05:06:46.841Z,100418.03
2022-11-18T05:09:15.128Z,100427.69
2022-11-18T05:12:01.257Z,100426.53
2022-11-18T05:14:29.839Z,100427.81
2022-11-18T05:16:59.233Z,100441.88
2022-11-18T05:19:27.475Z,100444.16
2022-11-18T05:21:56.809Z,100436.72
2022-11-18T05:24:25.288Z,100442.34
2022-11-18T05:26:53.456Z,100445.97
2022-11-18T05:29:22.064Z,100447.25
2022-11-18T05:31:50.608Z,100452.31
2022-11-18T05:34:19.604Z,100449.28
2022-11-18T05:36:47.869Z,100457.34
2022-11-18T05:39:17.384Z,100463.28
2022-11-18T05:42:02.787Z,100459.94
2022-11-18T05:44:30.608Z,100467.09
2022-11-18T05:46:58.520Z,100463.28
2022-11-18T05:49:26.607Z,100473.00
2022-11-18T05:51:54.446Z,100481.44
2022-11-18T05:54:24.093Z,100490.19
2022-11-18T05:56:52.106Z,100487.06
2022-11-18T05:59:20.617Z,100491.53
2022-11-18T06:01:52.571Z,100490.44
2022-11-18T06:04:25.249Z,100487.97
2022-11-18T06:06:58.484Z,100489.59
2022-11-18T06:09:32.292Z,100499.28
2022-11-18T06:12:03.391Z,100497.34
2022-11-18T06:14:38.620Z,100503.34
2022-11-18T06:17:13.114Z,100502.28
2022-11-18T06:19:41.104Z,100507.38
2022-11-18T06:22:09.887Z,100507.91
2022-11-18T06:24:40.245Z,100506.16
2022-11-18T06:27:08.141Z,100514.50
2022-11-18T06:29:35.989Z,100524.72
2022-11-18T06:32:03.987Z,100524.84
2022-11-18T06:34:34.510Z,100523.22
2022-11-18T06:37:14.068Z,100528.13
2022-11-18T06:39:43.641Z,100528.75
2022-11-18T06:42:11.500Z,100538.53
2022-11-18T06:44:38.645Z,100539.03
2022-11-18T06:47:06.640Z,100541.22
2022-11-18T06:49:34.469Z,100539.25
2022-11-18T06:52:02.573Z,100545.59
2022-11-18T06:54:30.417Z,100551.56
2022-11-18T06:56:59.886Z,100543.75
2022-11-18T06:59:27.922Z,100546.69
2022-11-18T07:01:55.847Z,100554.38
2022-11-18T07:04:23.775Z,100561.34
2022-11-18T07:06:51.894Z,100572.69
2022-11-18T07:09:20.304Z,100570.78
2022-11-18T07:11:48.313Z,100569.78
2022-11-18T07:14:18.252Z,100586.47
2022-11-18T07:16:46.202Z,100576.50
2022-11-18T07:19:15.270Z,100585.22
2022-11-18T07:21:43.953Z,100579.69
2022-11-18T07:24:14.540Z,100579.09
2022-11-18T07:26:43.520Z,100581.41
2022-11-18T07:29:11.611Z,100590.94
2022-11-18T07:31:40.997Z,100602.09
2022-11-18T07:34:09.385Z,100605.97
2022-11-18T07:36:37.620Z,100603.22
2022-11-18T07:39:07.480Z,100603.22
2022-11-18T07:41:36.180Z,100598.78
2022-11-18T07:44:06.637Z,100614.03
2022-11-18T07:46:36.852Z,100620.34
2022-11-18T07:49:07.637Z,100627.16
2022-11-18T07:51:37.621Z,100628.56
2022-11-18T07:54:08.898Z,100633.84
2022-11-18T07:56:36.895Z,100631.94
2022-11-18T07:59:05.799Z,100649.88
2022-11-18T08:01:33.903Z,100651.91
2022-11-18T08:04:08.559Z,100643.78
2022-11-18T08:06:37.009Z,100652.50
2022-11-18T08:09:06.077Z,100653.63
2022-11-18T08:11:34.106Z,100653.00
2022-11-18T08:14:02.598Z,100653.41
2022-11-18T08:16:30.818Z,100657.56
2022-11-18T08:19:00.256Z,100663.59
2022-11-18T08:21:29.923Z,100664.41
2022-11-18T08:23:59.470Z,100672.69
2022-11-18T08:26:28.464Z,100671.63
2022-11-18T08:28:56.774Z,100669.94
2022-11-18T08:31:30.578Z,100674.13
2022-11-18T08:34:01.340Z,100674.47
2022-11-18T08:36:35.590Z,100678.28
2022-11-18T08:39:06.359Z,100670.50
2022-11-18T08:41:36.038Z,100679.03
2022-11-18T08:44:04.636Z,100684.34
2022-11-18T08:46:33.310Z,100685.44
2022-11-18T08:49:01.416Z,100693.16
2022-11-18T08:51:31.041Z,100698.28
2022-11-18T08:53:59.473Z,100687.75
2022-11-18T08:56:28.294Z,100701.09
2022-11-18T08:58:57.358Z,100700.19
2022-11-18T09:01:25.762Z,100699.88
2022-11-18T09:03:53.941Z,100712.94
2022-11-18T09:06:25.239Z,100706.81
2022-11-18T09:08:55.671Z,100704.66
2022-11-18T09:11:25.413Z,100711.72
2022-11-18T09:15:06.157Z,100720.94
2022-11-18T09:16:42.840Z,100727.34
2022-11-18T09:22:01.688Z,100727.91
2022-11-18T09:24:32.072Z,100737.44
2022-11-18T09:27:00.279Z,100736.16
2022-11-18T09:29:28.275Z,100733.91
2022-11-18T09:31:56.732Z,100731.09
2022-11-18T09:34:24.953Z,100740.63
2022-11-18T09:36:55.936Z,100744.94
2022-11-18T09:39:24.825Z,100740.94
2022-11-18T09:42:03.326Z,100752.28
2022-11-18T09:44:45.990Z,100750.94
2022-11-18T09:47:26.175Z,100763.75
2022-11-18T09:49:57.213Z,100763.16
2022-11-18T09:52:35.461Z,100761.47
2022-11-18T09:55:06.199Z,100768.09
2022-11-18T09:57:41.609Z,100768.88
2022-11-18T10:00:16.283Z,100773.31
2022-11-18T10:02:52.319Z,100779.63
2022-11-18T10:05:23.475Z,100774.34
2022-11-18T10:08:04.702Z,100778.31
2022-11-18T10:10:41.982Z,100780.41
2022-11-18T10:13:23.364Z,100777.38
2022-11-18T10:16:00.311Z,100778.03
2022-11-18T10:21:30.368Z,100790.31
2022-11-18T10:24:04.052Z,100794.09
2022-11-18T10:26:34.953Z,100795.28
2022-11-18T10:29:07.737Z,100797.38
2022-11-18T10:31:38.240Z,100796.91
2022-11-18T10:34:06.181Z,100801.00
2022-11-18T10:36:37.112Z,100802.59
2022-11-18T10:39:16.149Z,100808.41
2022-11-18T10:41:49.022Z,100801.88
2022-11-18T10:44:33.231Z,100808.84
2022-11-18T10:47:28.656Z,100810.56
2022-11-18T10:49:59.076Z,100802.19
2022-11-18T10:52:28.303Z,100819.03
2022-11-18T10:55:21.070Z,100814.81
2022-11-18T10:57:51.690Z,100818.25
2022-11-18T11:00:51.123Z,100821.22
2022-11-18T11:03:35.334Z,100828.53
2022-11-18T11:06:23.102Z,100813.47
2022-11-18T11:08:53.165Z,100826.72
2022-11-18T11:11:26.670Z,100829.03
2022-11-18T11:14:01.432Z,100828.94
2022-11-18T11:16:32.637Z,100829.88
2022-11-18T11:19:04.670Z,100826.84
2022-11-18T11:21:32.567Z,100838.56
2022-11-18T11:24:00.481Z,100847.53
2022-11-18T11:29:36.271Z,100839.50
2022-11-18T11:32:14.927Z,100849.63
2022-11-18T11:34:49.456Z,100845.31
2022-11-18T11:37:30.007Z,100851.44
2022-11-18T11:40:21.853Z,100841.38
2022-11-18T11:43:00.662Z,100857.88
2022-11-18T11:45:35.935Z,100861.63
2022-11-18T11:48:24.807Z,100861.00
2022-11-18T11:51:04.379Z,100864.31
2022-11-18T11:53:53.932Z,100872.13
2022-11-18T11:56:30.986Z,100874.94
2022-11-18T11:59:12.125Z,100878.84
2022-11-18T12:01:53.496Z,100870.34
2022-11-18T12:04:36.471Z,100866.59
2022-11-18T12:07:06.211Z,100862.69
2022-11-18T12:09:47.423Z,100871.28
2022-11-18T12:12:35.653Z,100873.41
2022-11-18T12:15:17.535Z,100879.84
2022-11-18T12:17:55.591Z,100875.69
2022-11-18T12:20:47.280Z,100886.59
2022-11-18T12:23:21.035Z,100885.00
2022-11-18T12:25:58.414Z,100889.06
2022-11-18T12:28:29.731Z,100887.28
2022-11-18T12:31:33.692Z,100887.97
2022-11-18T12:34:05.307Z,100888.09
2022-11-18T12:36:36.925Z,100896.31
2022-11-18T12:39:43.199Z,100898.03
2022-11-18T12:42:59.706Z,100893.69
2022-11-18T12:45:55.804Z,100901.41
2022-11-18T12:48:38.035Z,100896.88
2022-11-18T12:51:42.545Z,100897.47
2022-11-18T12:54:34.216Z,100885.97
2022-11-18T12:57:04.817Z,100900.75
2022-11-18T12:59:35.950Z,100897.13
2022-11-18T13:05:04.801Z,100897.03
2022-11-18T13:07:52.212Z,100891.84
2022-11-18T13:10:28.028Z,100895.69
2022-11-18T13:12:56.231Z,100894.31
2022-11-18T13:15:42.127Z,100900.59
2022-11-18T13:18:15.480Z,100909.91
2022-11-18T13:20:55.074Z,100912.53
2022-11-18T13:23:47.042Z,100909.91
2022-11-18T13:26:25.110Z,100917.81
2022-11-18T13:29:17.741Z,100921.44
2022-11-18T13:31:55.336Z,100921.38
2022-11-18T13:34:25.643Z,100925.72
2022-11-18T13:36:56.816Z,100921.03
2022-11-18T13:39:27.830Z,100931.41
2022-11-18T13:42:03.566Z,100932.16
2022-11-18T13:44:33.311Z,100931.28
2022-11-18T13:47:07.940Z,100940.94
2022-11-18T13:49:50.070Z,100936.56
2022-11-18T13:52:24.295Z,100942.47
2022-11-18T13:54:53.403Z,100951.50
2022-11-18T13:57:23.739Z,100951.84
2022-11-18T13:59:53.903Z,100944.56
2022-11-18T14:02:22.413Z,100944.56
2022-11-18T14:04:54.791Z,100951.75
2022-11-18T14:07:31.209Z,100957.97
2022-11-18T14:10:01.821Z,100956.88
2022-11-18T14:12:32.612Z,100966.59
2022-11-18T14:15:43.369Z,100945.84
2022-11-18T14:18:19.814Z,100957.88
2022-11-18T14:20:52.674Z,100969.84
2022-11-18T14:23:28.467Z,100975.28
2022-11-18T14:25:57.567Z,100977.91
2022-11-18T14:28:29.273Z,100974.66
2022-11-18T14:31:04.009Z,100985.38
2022-11-18T14:33:35.769Z,100986.31
2022-11-18T14:36:13.156Z,100992.34
2022-11-18T14:41:50.687Z,100997.47
2022-11-18T14:44:19.668Z,101003.72
2022-11-18T14:46:49.703Z,101010.81
2022-11-18T14:49:22.097Z,101002.75
2022-11-18T14:51:51.265Z,101006.03
2022-11-18T14:54:26.790Z,101002.66
2022-11-18T14:56:58.307Z,101008.72
2022-11-18T14:59:26.574Z,101015.69
2022-11-18T15:01:54.847Z,101004.28
2022-11-18T15:04:22.919Z,101015.66
2022-11-18T15:06:50.889Z,101004.13
2022-11-18T15:09:20.269Z,101012.94
2022-11-18T15:11:48.132Z,101014.72
2022-11-18T15:14:16.745Z,101027.94
2022-11-18T15:16:45.141Z,101024.38
2022-11-18T15:19:16.958Z,101035.66
2022-11-18T15:21:45.678Z,101030.38
2022-11-18T15:24:13.784Z,101033.94
2022-11-18T15:26:45.400Z,101038.38
2022-11-18T15:29:17.925Z,101044.69
2022-11-18T15:31:45.829Z,101042.78
2022-11-18T15:34:13.857Z,101043.66
2022-11-18T15:36:43.219Z,101043.75
2022-11-18T15:39:12.158Z,101052.50
2022-11-18T15:41:42.815Z,101056.19
2022-11-18T15:44:12.325Z,101061.56
2022-11-18T15:46:40.577Z,101062.53
2022-11-18T15:49:09.935Z,101064.34
2022-11-18T15:51:38.347Z,101066.97
2022-11-18T15:54:06.323Z,101072.19
2022-11-18T15:56:34.497Z,101071.47
2022-11-18T15:59:05.505Z,101074.00
2022-11-18T16:01:35.327Z,101086.56
2022-11-18T16:04:03.871Z,101083.25
2022-11-18T16:06:32.427Z,101081.38
2022-11-18T16:09:00.923Z,101087.47
2022-11-18T16:11:47.531Z,101086.03
2022-11-18T16:14:19.044Z,101091.25
2022-11-18T16:16:49.046Z,101093.06
2022-11-18T16:19:18.645Z,101092.19
2022-11-18T16:21:48.283Z,101101.91
2022-11-18T16:24:19.207Z,101104.47
2022-11-18T16:26:47.355Z,101102.72
2022-11-18T16:32:15.192Z,101125.59
2022-11-18T16:34:43.167Z,101123.22
2022-11-18T16:37:11.126Z,101124.97
2022-11-18T16:39:39.106Z,101132.13
2022-11-18T16:40:28.282Z,101114.97
2022-11-18T16:42:08.974Z,101123.44
2022-11-18T16:44:38.797Z,101125.34
2022-11-18T16:47:14.361Z,101123.69
2022-11-18T16:49:43.205Z,101124.41
2022-11-18T16:52:12.700Z,101135.53
2022-11-18T16:54:45.392Z,101133.09
2022-11-18T16:57:14.211Z,101134.84
2022-11-18T16:59:43.619Z,101136.47
2022-11-18T17:02:13.767Z,101135.59
2022-11-18T17:04:42.507Z,101148.91
2022-11-18T17:07:10.482Z,101149.72
2022-11-18T17:09:38.420Z,101148.72
2022-11-18T17:12:07.071Z,101149.78
2022-11-18T17:14:38.064Z,101144.41
2022-11-18T17:17:08.175Z,101140.22
2022-11-18T17:19:36.643Z,101139.19
2022-11-18T17:22:04.639Z,101138.28
2022-11-18T17:24:32.897Z,101138.41
2022-11-18T17:27:00.896Z,101142.81
2022-11-18T17:29:28.890Z,101144.31
2022-11-18T17:31:56.862Z,101143.63
2022-11-18T17:34:26.165Z,101149.81
2022-11-18T17:36:54.044Z,101154.19
2022-11-18T17:39:22.059Z,101158.50
2022-11-18T17:42:07.363Z,101160.22
2022-11-18T17:44:35.345Z,101170.63
2022-11-18T17:47:03.569Z,101175.88
2022-11-18T17:49:32.904Z,101180.47
2022-11-18T17:52:00.980Z,101185.69
2022-11-18T17:54:29.019Z,101186.59
2022-11-18T17:56:56.977Z,101191.22
2022-11-18T17:59:24.922Z,101191.19
2022-11-18T18:01:58.904Z,101184.16
2022-11-18T18:04:27.431Z,101192.06
2022-11-18T18:06:56.751Z,101194.69
2022-11-18T18:09:30.682Z,101199.13
2022-11-18T18:11:59.788Z,101203.38
2022-11-18T18:14:26.728Z,101199.94
2022-11-18T18:16:55.159Z,101210.66
2022-11-18T18:19:24.469Z,101204.47
2022-11-18T18:21:53.319Z,101209.88
2022-11-18T18:24:23.288Z,101217.84
2022-11-18T18:26:51.504Z,101226.59
2022-11-18T18:29:19.484Z,101219.53
2022-11-18T18:31:47.423Z,101230.31
2022-11-18T18:34:15.328Z,101231.22
2022-11-18T18:36:43.214Z,101241.84
2022-11-18T18:39:11.118Z,101238.38
2022-11-18T18:41:40.888Z,101245.47
2022-11-18T18:44:10.439Z,101241.22
2022-11-18T18:46:41.918Z,101238.78
2022-11-18T18:49:11.737Z,101245.84
2022-11-18T18:51:40.967Z,101243.34
2022-11-18T18:54:11.596Z,101249.50
2022-11-18T18:56:41.267Z,101252.16
2022-11-18T18:59:09.760Z,101244.31
2022-11-18T19:01:40.297Z,101247.03
2022-11-18T19:04:09.358Z,101240.03
2022-11-18T19:06:51.951Z,101241.63
2022-11-18T19:09:25.096Z,101253.88
2022-11-18T19:12:12.629Z,101251.28
2022-11-18T19:14:41.035Z,101245.06
2022-11-18T19:17:12.141Z,101247.78
2022-11-18T19:19:59.818Z,101251.38
2022-11-18T19:22:30.436Z,101248.53
2022-11-18T19:24:58.815Z,101245.88
2022-11-18T19:27:28.459Z,101251.25
2022-11-18T19:29:56.302Z,101249.56
2022-11-18T19:32:24.402Z,101257.34
2022-11-18T19:34:52.374Z,101264.41
2022-11-18T19:37:20.170Z,101267.81
2022-11-18T19:39:47.996Z,101262.66
2022-11-18T19:42:16.028Z,101272.44
2022-11-18T19:44:45.316Z,101266.28
2022-11-18T19:47:13.201Z,101270.81
2022-11-18T19:49:41.203Z,101281.28
2022-11-18T19:52:09.218Z,101282.13
2022-11-18T19:54:37.074Z,101284.00
2022-11-18T19:57:05.057Z,101274.47
2022-11-18T19:59:32.924Z,101285.78
2022-11-18T20:02:02.183Z,101288.28
2022-11-18T20:04:30.349Z,101290.41
2022-11-18T20:06:58.468Z,101293.72
2022-11-18T20:09:26.569Z,101300.75
2022-11-18T20:11:55.692Z,101308.59
2022-11-18T20:14:23.628Z,101310.41
2022-11-18T20:16:52.636Z,101302.53
2022-11-18T20:19:22.262Z,101304.25
2022-11-18T20:21:50.394Z,101309.50
2022-11-18T20:24:20.110Z,101305.16
2022-11-18T20:26:48.737Z,101308.66
2022-11-18T20:29:16.949Z,101307.81
2022-11-18T20:31:45.298Z,101311.34
2022-11-18T20:34:14.476Z,101315.78
2022-11-18T20:36:44.380Z,101328.91
2022-11-18T20:39:15.526Z,101331.56
2022-11-18T20:41:43.611Z,101341.13
2022-11-18T20:44:11.459Z,101339.78
2022-11-18T20:46:39.313Z,101339.78
2022-11-18T20:49:07.281Z,101341.66
2022-11-18T20:51:35.217Z,101340.19
2022-11-18T20:54:08.255Z,101345.41
2022-11-18T20:56:36.261Z,101338.34
2022-11-18T20:59:04.289Z,101343.59
2022-11-18T21:01:33.296Z,101354.03
2022-11-18T21:04:05.289Z,101354.13
2022-11-18T21:06:34.563Z,101365.63
2022-11-18T21:09:06.334Z,101361.97
2022-11-18T21:11:36.814Z,101368.13
2022-11-18T21:14:24.451Z,101375.25
2022-11-18T21:16:53.807Z,101374.31
2022-11-18T21:19:22.341Z,101382.31
2022-11-18T21:21:52.514Z,101380.69
2022-11-18T21:24:23.662Z,101387.91
2022-11-18T21:26:54.587Z,101385.25
2022-11-18T21:29:23.603Z,101393.03
2022-11-18T21:31:52.449Z,101390.41
2022-11-18T21:34:21.631Z,101394.88
2022-11-18T21:36:54.284Z,101385.22
2022-11-18T21:39:25.199Z,101379.84
2022-11-18T21:41:56.551Z,101381.53
2022-11-18T21:44:25.603Z,101383.19
2022-11-18T21:46:53.748Z,101384.03
2022-11-18T21:49:22.218Z,101390.22
2022-11-18T21:51:50.528Z,101388.44
2022-11-18T21:54:18.696Z,101390.38
2022-11-18T21:56:47.968Z,101396.66
2022-11-18T21:59:15.991Z,101387.84
2022-11-18T22:01:44.187Z,101392.34
2022-11-18T22:04:32.795Z,101392.38
2022-11-18T22:07:00.987Z,101397.69
2022-11-18T22:09:34.558Z,101398.63
2022-11-18T22:12:06.797Z,101404.56
2022-11-18T22:14:34.910Z,101408.84
2022-11-18T22:17:02.939Z,101407.22
2022-11-18T22:19:31.092Z,101409.91
2022-11-18T22:21:59.000Z,101413.31
2022-11-18T22:24:26.899Z,101406.44
2022-11-18T22:26:55.006Z,101406.47
2022-11-18T22:29:26.031Z,101422.22
2022-11-18T22:31:54.464Z,101421.34
2022-11-18T22:34:22.429Z,101426.44
2022-11-18T22:36:50.331Z,101422.06
2022-11-18T22:39:18.510Z,101428.97
2022-11-18T22:42:04.222Z,101424.69
2022-11-18T22:44:33.521Z,101412.53
2022-11-18T22:47:01.363Z,101414.19
2022-11-18T22:49:29.294Z,101428.19
2022-11-18T22:51:57.312Z,101428.06
2022-11-18T22:54:41.176Z,101425.47
2022-11-18T22:57:09.549Z,101429.88
2022-11-18T22:59:38.817Z,101439.50
2022-11-18T23:02:07.229Z,101435.06
2022-11-18T23:04:36.275Z,101449.22
2022-11-18T23:07:04.632Z,101444.03
2022-11-18T23:09:32.673Z,101437.81
2022-11-18T23:12:17.924Z,101441.31
2022-11-18T23:14:47.331Z,101435.09
2022-11-18T23:17:16.070Z,101450.03
2022-11-18T23:19:44.373Z,101449.28
2022-11-18T23:22:12.679Z,101465.13
2022-11-18T23:24:41.077Z,101460.78
2022-11-18T23:27:09.598Z,101456.50
2022-11-18T23:29:37.530Z,101470.44
2022-11-18T23:32:07.113Z,101473.09
2022-11-18T23:34:35.175Z,101479.16
2022-11-18T23:37:03.189Z,101475.63
2022-11-18T23:39:31.134Z,101472.88
2022-11-18T23:41:59.109Z,101480.91
2022-11-18T23:44:40.941Z,101482.59
2022-11-18T23:47:10.400Z,101476.41
2022-11-18T23:49:38.335Z,101472.00
2022-11-18T23:52:06.569Z,101465.91
2022-11-18T23:54:34.625Z,101466.78
2022-11-18T23:57:04.500Z,101468.59
2022-11-18T23:59:33.266Z,101465.97
